Time;durP1;ratioP1;P1;durP2;ratioP2;P2;SDS_P1;SDS_P2;PMS_P1;PMS_P2;Temp;Humidity;BMP_temperature;BMP_pressure;BME280_temperature;BME280_humidity;BME280_pressure;Samples;Min_cycle;Max_cycle;Signal;HPM_P1;HPM_P2
2022/09/20 00:00:07;;;;;;;8.38;5.10;;;307.90;2304.00;;;;;;5037945;28;20029;-81
2022/09/20 00:02:33;;;;;;;6.85;4.72;;;307.90;2304.00;;;;;;5037974;28;20028;-82
2022/09/20 00:04:58;;;;;;;7.70;4.95;;;307.90;2304.00;;;;;;5071638;28;20021;-81
2022/09/20 00:07:24;;;;;;;7.43;4.78;;;307.80;2304.00;;;;;;5037773;28;20032;-81
2022/09/20 00:09:50;;;;;;;6.63;4.60;;;307.80;2304.00;;;;;;5071390;28;20021;-81
2022/09/20 00:12:16;;;;;;;7.93;4.63;;;307.80;2304.00;;;;;;5037953;28;20082;-81
2022/09/20 00:14:41;;;;;;;6.63;4.40;;;307.60;2304.00;;;;;;5037626;28;20028;-82
2022/09/20 00:17:07;;;;;;;8.90;5.45;;;307.60;2304.00;;;;;;5037519;28;20039;-81
2022/09/20 00:19:33;;;;;;;9.38;5.53;;;307.60;2304.00;;;;;;5037873;28;20029;-81
2022/09/20 00:21:59;;;;;;;9.80;5.95;;;307.60;2304.00;;;;;;5037464;28;20162;-82
2022/09/20 00:24:24;;;;;;;10.27;6.45;;;307.40;2304.00;;;;;;5053249;28;20064;-80
2022/09/20 00:26:50;;;;;;;11.82;6.03;;;307.50;2304.00;;;;;;5037700;28;20043;-81
2022/09/20 00:29:16;;;;;;;15.70;6.22;;;307.50;2304.00;;;;;;5069867;28;20514;-80
2022/09/20 00:31:42;;;;;;;9.73;5.95;;;307.60;2304.00;;;;;;5037327;28;20029;-82
2022/09/20 00:36:53;;;;;;;13.85;7.25;;;307.40;2304.00;;;;;;5054896;28;20438;-82
2022/09/20 00:39:19;;;;;;;15.30;8.50;;;307.20;2304.00;;;;;;5055392;28;20041;-82
2022/09/20 00:41:45;;;;;;;15.93;10.02;;;307.30;2304.00;;;;;;5037220;28;20115;-81
2022/09/20 00:44:41;;;;;;;20.92;10.80;;;307.30;2304.00;;;;;;5055383;28;20049;-81
2022/09/20 00:47:15;;;;;;;22.77;11.68;;;307.20;2304.00;;;;;;5037334;28;20035;-81
2022/09/20 00:49:41;;;;;;;16.13;9.35;;;307.20;2304.00;;;;;;5037111;28;20075;-79
2022/09/20 00:52:07;;;;;;;15.70;8.85;;;307.20;2304.00;;;;;;5037128;28;20462;-79
2022/09/20 00:54:33;;;;;;;18.35;10.05;;;282.50;2278.40;;;;;;5070353;28;20025;-81
2022/09/20 00:56:59;;;;;;;16.83;9.15;;;282.50;2278.40;;;;;;5054398;28;20104;-80
2022/09/20 00:59:36;;;;;;;18.48;9.13;;;282.40;2278.40;;;;;;5037069;28;20539;-79
2022/09/20 01:02:11;;;;;;;16.52;8.15;;;282.50;2278.40;;;;;;5053698;28;20041;-78
2022/09/20 01:04:39;;;;;;;16.50;9.02;;;282.50;2278.40;;;;;;5053418;28;20029;-78
2022/09/20 01:07:07;;;;;;;21.35;12.70;;;282.40;2278.40;;;;;;5052484;28;20036;-77
2022/09/20 01:09:32;;;;;;;14.30;7.68;;;282.30;2278.40;;;;;;5035886;28;20115;-79
2022/09/20 01:12:04;;;;;;;13.88;7.70;;;282.40;2278.40;;;;;;5054491;28;20065;-78
2022/09/20 01:14:30;;;;;;;15.10;9.10;;;282.40;2278.40;;;;;;5036835;28;20425;-78
2022/09/20 01:17:01;;;;;;;18.52;9.88;;;282.30;2278.40;;;;;;5036437;28;20055;-79
2022/09/20 01:20:03;;;;;;;18.42;8.80;;;282.30;2278.40;;;;;;5036844;28;20040;-79
2022/09/20 01:22:35;;;;;;;13.15;7.63;;;282.30;2278.40;;;;;;5053285;28;20029;-79
2022/09/20 01:25:12;;;;;;;13.68;7.13;;;282.30;2278.40;;;;;;5052934;28;20029;-78
2022/09/20 01:27:42;;;;;;;13.07;7.72;;;282.40;2278.40;;;;;;5054734;28;20041;-80
2022/09/20 01:30:17;;;;;;;11.77;7.82;;;282.50;2278.40;;;;;;5036304;28;20029;-79
2022/09/20 01:33:13;;;;;;;14.45;8.73;;;282.40;2278.40;;;;;;5035951;28;20021;-79
2022/09/20 01:35:43;;;;;;;16.77;10.77;;;282.50;2278.40;;;;;;5036429;28;20377;-79
2022/09/20 01:38:43;;;;;;;16.25;10.25;;;282.40;2278.40;;;;;;5036075;28;20083;-80
2022/09/20 01:41:11;;;;;;;15.07;8.70;;;282.40;2278.40;;;;;;5036406;28;20057;-81
2022/09/20 01:43:54;;;;;;;18.33;9.35;;;282.40;2278.40;;;;;;5052712;28;20482;-80
2022/09/20 01:46:35;;;;;;;17.52;9.90;;;282.40;2278.40;;;;;;5053530;28;20482;-78
2022/09/20 01:49:44;;;;;;;17.13;9.82;;;282.30;2278.40;;;;;;5036214;28;20116;-78
2022/09/20 01:52:51;;;;;;;13.10;8.05;;;282.30;2278.40;;;;;;5035950;28;20021;-77
2022/09/20 01:55:41;;;;;;;16.63;7.18;;;282.30;2278.40;;;;;;5027774;28;20036;-77
2022/09/20 01:58:15;;;;;;;11.57;7.15;;;282.30;2278.40;;;;;;5035718;28;20386;-77
2022/09/20 02:01:12;;;;;;;10.70;6.65;;;282.30;2278.40;;;;;;5052670;28;20055;-78
2022/09/20 02:03:49;;;;;;;9.02;5.40;;;282.00;2278.40;;;;;;5052648;28;20123;-78
2022/09/20 02:06:30;;;;;;;8.63;5.22;;;282.10;2278.40;;;;;;5052220;28;20025;-78
2022/09/20 02:09:05;;;;;;;7.53;5.10;;;281.80;2278.40;;;;;;5037780;28;20116;-78
2022/09/20 02:11:52;;;;;;;9.55;5.47;;;281.90;2278.40;;;;;;5047061;28;20478;-79
2022/09/20 02:14:53;;;;;;;7.18;4.85;;;281.70;2278.40;;;;;;5014492;28;20074;-78
2022/09/20 02:17:31;;;;;;;7.00;4.70;;;281.80;2278.40;;;;;;5049057;28;20462;-79
2022/09/20 02:20:30;;;;;;;8.30;4.60;;;281.80;2278.40;;;;;;5033513;28;20136;-81
2022/09/20 02:23:30;;;;;;;9.48;5.22;;;281.70;2278.40;;;;;;5024270;28;20035;-81
2022/09/20 02:26:14;;;;;;;10.85;5.93;;;281.60;2278.40;;;;;;5064238;28;20025;-81
2022/09/20 02:29:07;;;;;;;14.05;6.85;;;256.90;2252.80;;;;;;5035148;28;20032;-80
2022/09/20 02:31:55;;;;;;;14.40;7.50;;;281.60;2278.40;;;;;;5035228;28;20025;-80
2022/09/20 02:34:52;;;;;;;13.00;6.65;;;281.60;2278.40;;;;;;5046721;28;20036;-78
2022/09/20 02:37:48;;;;;;;12.35;6.90;;;256.70;2252.80;;;;;;5031467;28;20461;-79
2022/09/20 02:40:36;;;;;;;14.18;6.68;;;256.90;2252.80;;;;;;5030903;28;20072;-81
2022/09/20 02:43:34;;;;;;;15.25;7.45;;;256.90;2252.80;;;;;;5032023;28;20140;-81
2022/09/20 02:46:07;;;;;;;18.70;7.57;;;281.60;2278.40;;;;;;5036971;28;20101;-80
2022/09/20 02:49:07;;;;;;;12.70;6.97;;;281.60;2278.40;;;;;;5019606;28;20406;-80
2022/09/20 02:51:38;;;;;;;14.88;7.97;;;281.60;2278.40;;;;;;5037096;28;20414;-80
2022/09/20 02:54:42;;;;;;;15.20;8.32;;;256.70;2252.80;;;;;;5019311;28;20028;-79
2022/09/20 02:57:23;;;;;;;11.02;7.32;;;256.90;2252.80;;;;;;5052507;28;20033;-79
2022/09/20 02:59:59;;;;;;;14.82;7.00;;;256.80;2252.80;;;;;;5035971;28;20034;-80
2022/09/20 03:02:32;;;;;;;14.35;7.18;;;256.90;2252.80;;;;;;5035763;28;20368;-81
2022/09/20 03:05:27;;;;;;;17.70;7.78;;;256.90;2252.80;;;;;;5037017;28;20105;-79
2022/09/20 03:08:32;;;;;;;12.30;7.22;;;256.90;2252.80;;;;;;5035867;28;20033;-80
2022/09/20 03:11:19;;;;;;;12.73;8.32;;;256.90;2252.80;;;;;;5036836;28;20087;-79
2022/09/20 03:14:17;;;;;;;13.25;7.70;;;281.60;2278.40;;;;;;5035857;28;20076;-79
2022/09/20 03:17:20;;;;;;;10.52;7.82;;;256.90;2252.80;;;;;;5035486;28;20034;-80
2022/09/20 03:20:18;;;;;;;9.52;6.93;;;256.80;2252.80;;;;;;5035741;28;20038;-81
2022/09/20 03:22:59;;;;;;;9.95;6.80;;;256.90;2252.80;;;;;;5019042;28;20029;-81
2022/09/20 03:25:49;;;;;;;9.63;6.43;;;256.90;2252.80;;;;;;5036658;28;20360;-81
2022/09/20 03:28:23;;;;;;;9.73;5.57;;;281.60;2278.40;;;;;;5035603;28;20029;-81
2022/09/20 03:31:10;;;;;;;10.98;6.38;;;281.70;2278.40;;;;;;5035322;28;20025;-80
2022/09/20 03:34:00;;;;;;;8.30;5.72;;;256.90;2252.80;;;;;;5052067;28;20095;-80
2022/09/20 03:36:35;;;;;;;7.60;5.57;;;256.90;2252.80;;;;;;5018755;28;20459;-81
2022/09/20 03:39:34;;;;;;;7.13;5.68;;;281.70;2278.40;;;;;;5035275;28;20044;-80
2022/09/20 03:42:18;;;;;;;8.95;5.32;;;281.80;2278.40;;;;;;5036720;28;20025;-80
2022/09/20 03:44:53;;;;;;;9.25;6.53;;;281.70;2278.40;;;;;;5060775;28;20093;-80
2022/09/20 03:47:30;;;;;;;8.95;7.05;;;281.70;2278.40;;;;;;5060524;28;20029;-80
2022/09/20 03:50:10;;;;;;;10.45;6.82;;;256.90;2252.80;;;;;;5039689;28;20049;-80
2022/09/20 03:52:50;;;;;;;13.45;7.10;;;256.90;2252.80;;;;;;5035271;28;20033;-79
2022/09/20 03:55:31;;;;;;;6.95;5.30;;;256.70;2252.80;;;;;;5036104;28;20026;-79
2022/09/20 03:58:03;;;;;;;8.18;5.30;;;256.90;2252.80;;;;;;5034843;28;20033;-79
2022/09/20 04:00:34;;;;;;;8.32;5.78;;;256.90;2252.80;;;;;;5035159;28;20026;-80
2022/09/20 04:03:21;;;;;;;6.25;4.75;;;256.90;2252.80;;;;;;5046115;28;20025;-78
2022/09/20 04:06:02;;;;;;;7.18;5.35;;;281.70;2278.40;;;;;;5054729;28;20379;-78
2022/09/20 04:08:53;;;;;;;7.65;5.45;;;281.60;2278.40;;;;;;5055083;28;20517;-79
2022/09/20 04:11:36;;;;;;;14.50;5.07;;;256.90;2252.80;;;;;;5055721;28;20464;-81
2022/09/20 04:14:11;;;;;;;6.60;4.78;;;256.60;2252.80;;;;;;5038212;28;20513;-80
2022/09/20 04:17:02;;;;;;;8.88;5.30;;;256.90;2252.80;;;;;;5054567;28;20067;-79
2022/09/20 04:20:02;;;;;;;6.57;4.72;;;256.70;2252.80;;;;;;5037730;28;20029;-79
2022/09/20 04:22:29;;;;;;;6.30;3.92;;;256.70;2252.80;;;;;;5037957;28;20025;-79
2022/09/20 04:25:14;;;;;;;6.03;4.32;;;256.90;2252.80;;;;;;5037828;28;20049;-79
2022/09/20 04:27:55;;;;;;;7.18;5.05;;;256.90;2252.80;;;;;;5037829;28;20112;-80
2022/09/20 04:30:28;;;;;;;8.40;5.88;;;281.60;2278.40;;;;;;5054369;28;20554;-80
2022/09/20 04:33:03;;;;;;;9.23;5.63;;;256.50;2252.80;;;;;;5037355;28;20021;-81
2022/09/20 04:38:20;;;;;;;9.05;5.30;;;256.60;2252.80;;;;;;5055238;28;20032;-81
2022/09/20 04:41:17;;;;;;;6.32;4.90;;;256.70;2252.80;;;;;;5054371;28;20041;-79
2022/09/20 04:44:21;;;;;;;7.07;5.53;;;256.50;2252.80;;;;;;5034676;28;20187;-79
2022/09/20 04:46:58;;;;;;;5.78;4.68;;;256.50;2252.80;;;;;;5032275;28;20036;-80
2022/09/20 04:49:45;;;;;;;7.63;5.30;;;256.50;2252.80;;;;;;5033193;28;20021;-81
2022/09/20 04:52:50;;;;;;;8.95;6.57;;;256.40;2252.80;;;;;;5034032;28;20060;-81
2022/09/20 04:56:00;;;;;;;9.68;5.82;;;256.30;2252.80;;;;;;5026489;28;20537;-81
2022/09/20 04:59:03;;;;;;;7.72;5.68;;;256.50;2252.80;;;;;;5032315;28;20037;-80
2022/09/20 05:02:07;;;;;;;9.20;7.20;;;256.60;2252.80;;;;;;5033602;28;20124;-82
2022/09/20 05:05:14;;;;;;;8.75;6.55;;;256.50;2252.80;;;;;;5033976;28;20029;-79
2022/09/20 05:08:16;;;;;;;9.02;6.40;;;256.50;2252.80;;;;;;5032374;28;20040;-82
2022/09/20 05:11:22;;;;;;;12.90;7.88;;;256.60;2252.80;;;;;;5033674;28;20069;-78
2022/09/20 05:14:16;;;;;;;9.45;6.75;;;256.70;2252.80;;;;;;5025835;28;20037;-80
2022/09/20 05:17:10;;;;;;;12.07;7.60;;;256.90;2252.80;;;;;;5033640;28;20382;-81
2022/09/20 05:20:12;;;;;;;11.15;7.18;;;256.40;2252.80;;;;;;5033568;28;20029;-81
2022/09/20 05:22:37;;;;;;;11.25;7.90;;;256.50;2252.80;;;;;;5033304;28;20360;-80
2022/09/20 05:25:10;;;;;;;10.38;7.53;;;256.70;2252.80;;;;;;5042226;28;20032;-81
2022/09/20 05:27:47;;;;;;;13.52;8.70;;;256.90;2252.80;;;;;;5054479;28;20079;-82
2022/09/20 05:30:33;;;;;;;15.48;8.85;;;256.70;2252.80;;;;;;5035423;28;20474;-82
2022/09/20 05:33:20;;;;;;;10.43;8.60;;;256.70;2252.80;;;;;;5036683;28;20086;-81
2022/09/20 05:36:07;;;;;;;14.13;9.15;;;256.60;2252.80;;;;;;5052888;28;20102;-80
2022/09/20 05:38:48;;;;;;;17.33;11.30;;;256.40;2252.80;;;;;;5036512;28;20024;-80
2022/09/20 05:41:39;;;;;;;13.80;9.73;;;256.40;2252.80;;;;;;5054314;28;20025;-82
2022/09/20 05:44:41;;;;;;;9.23;8.02;;;256.60;2252.80;;;;;;5052128;28;20103;-81
2022/09/20 05:47:15;;;;;;;10.75;7.70;;;256.90;2252.80;;;;;;5053110;28;20078;-81
2022/09/20 05:50:20;;;;;;;12.38;8.60;;;256.80;2252.80;;;;;;5053871;28;20025;-82
2022/09/20 05:53:02;;;;;;;10.80;8.85;;;256.80;2252.80;;;;;;5028427;28;20363;-81
2022/09/20 05:55:45;;;;;;;12.68;8.95;;;256.70;2252.80;;;;;;5054480;28;20541;-81
2022/09/20 05:58:34;;;;;;;13.68;8.77;;;256.40;2252.80;;;;;;5052372;28;20060;-81
2022/09/20 06:01:20;;;;;;;16.90;10.18;;;256.50;2252.80;;;;;;5032949;28;20086;-80
2022/09/20 06:03:56;;;;;;;10.45;8.95;;;256.40;2252.80;;;;;;5035821;28;20031;-83
2022/09/20 06:06:31;;;;;;;14.23;8.80;;;256.60;2252.80;;;;;;5036111;28;20021;-82
2022/09/20 06:09:34;;;;;;;11.90;8.38;;;256.90;2252.80;;;;;;5053976;28;20107;-82
2022/09/20 06:12:06;;;;;;;13.45;9.00;;;256.90;2252.80;;;;;;5035801;28;20036;-81
2022/09/20 06:14:37;;;;;;;15.20;8.40;;;256.70;2252.80;;;;;;5052638;28;20059;-80
2022/09/20 06:17:12;;;;;;;11.68;8.30;;;256.70;2252.80;;;;;;5052055;28;20081;-81
2022/09/20 06:19:38;;;;;;;14.63;8.27;;;256.60;2252.80;;;;;;5052312;28;20520;-80
2022/09/20 06:22:26;;;;;;;11.27;8.43;;;281.70;2278.40;;;;;;5052515;28;20033;-79
2022/09/20 06:25:07;;;;;;;15.13;8.40;;;281.70;2278.40;;;;;;5052046;28;20024;-79
2022/09/20 06:27:49;;;;;;;11.30;8.32;;;281.90;2278.40;;;;;;5052379;28;20120;-80
2022/09/20 06:30:26;;;;;;;13.02;9.13;;;282.20;2278.40;;;;;;5035901;28;20026;-79
2022/09/20 06:32:58;;;;;;;13.88;10.60;;;282.20;2278.40;;;;;;5035283;28;20116;-80
2022/09/20 06:35:30;;;;;;;20.45;12.02;;;282.30;2278.40;;;;;;5035573;28;20025;-80
2022/09/20 06:43:48;;;;;;;15.40;8.40;;;281.60;2278.40;;;;;;5052926;28;20418;-80
2022/09/20 06:46:14;;;;;;;11.95;8.85;;;256.80;2252.80;;;;;;5035347;28;20025;-80
2022/09/20 06:48:40;;;;;;;10.98;9.05;;;281.70;2278.40;;;;;;5068742;28;20075;-81
2022/09/20 06:51:11;;;;;;;12.13;8.98;;;256.90;2252.80;;;;;;5035456;28;20048;-80
2022/09/20 06:53:40;;;;;;;12.73;9.50;;;281.70;2278.40;;;;;;5034940;28;20496;-79
2022/09/20 06:56:11;;;;;;;14.55;9.23;;;281.90;2278.40;;;;;;5035438;28;20029;-79
2022/09/20 06:58:37;;;;;;;13.40;10.03;;;282.10;2278.40;;;;;;5035501;28;20429;-80
2022/09/20 07:01:03;;;;;;;15.82;10.40;;;282.10;2278.40;;;;;;5034733;28;20033;-80
2022/09/20 07:03:30;;;;;;;12.95;11.63;;;281.90;2278.40;;;;;;5034389;28;20075;-83
2022/09/20 07:05:57;;;;;;;12.60;11.15;;;281.80;2278.40;;;;;;5035343;28;20025;-81
2022/09/20 07:08:23;;;;;;;13.40;11.85;;;281.80;2278.40;;;;;;5034061;28;20025;-82
2022/09/20 07:10:49;;;;;;;15.02;10.75;;;282.00;2278.40;;;;;;5035496;28;20421;-81
2022/09/20 07:13:18;;;;;;;11.50;10.05;;;282.30;2278.40;;;;;;5035211;28;20025;-79
2022/09/20 07:15:44;;;;;;;18.25;13.43;;;282.40;2278.40;;;;;;5053394;28;20024;-84
2022/09/20 07:18:09;;;;;;;12.77;10.82;;;282.50;2278.40;;;;;;5035311;28;20029;-81
2022/09/20 07:20:35;;;;;;;12.20;9.75;;;307.30;2304.00;;;;;;5035196;28;20087;-82
2022/09/20 07:23:01;;;;;;;10.80;8.40;;;307.50;2304.00;;;;;;5035417;28;20425;-82
2022/09/20 07:25:27;;;;;;;13.57;9.73;;;307.70;2304.00;;;;;;5053290;28;20039;-82
2022/09/20 07:27:53;;;;;;;11.30;8.88;;;307.70;2304.00;;;;;;5035292;28;20087;-83
2022/09/20 07:30:20;;;;;;;17.05;9.60;;;307.80;2304.00;;;;;;5035958;28;20458;-82
2022/09/20 07:32:46;;;;;;;12.70;10.32;;;307.80;2304.00;;;;;;5056909;28;20025;-82
2022/09/20 07:35:12;;;;;;;10.68;9.00;;;308.00;2304.00;;;;;;5056519;28;20021;-81
2022/09/20 07:37:41;;;;;;;11.75;8.55;;;308.10;2304.00;;;;;;5072071;28;20033;-81
2022/09/20 07:40:09;;;;;;;9.95;8.70;;;308.10;2304.00;;;;;;5038724;28;20025;-84
2022/09/20 07:42:35;;;;;;;13.82;9.55;;;;;;;;;;5038208;28;20058;-80
2022/09/20 07:45:02;;;;;;;11.45;9.30;;;;;;;;;;5055462;28;20466;-82
2022/09/20 07:47:34;;;;;;;9.35;7.90;;;332.90;2329.60;;;;;;5056593;28;20082;-81
2022/09/20 07:50:00;;;;;;;12.63;8.70;;;;;;;;;;5038443;28;20471;-80
2022/09/20 07:52:26;;;;;;;11.75;9.65;;;333.10;2329.60;;;;;;5056360;28;20024;-82
2022/09/20 07:54:52;;;;;;;9.85;8.35;;;333.00;2329.60;;;;;;5038683;28;20032;-83
2022/09/20 07:57:18;;;;;;;11.70;8.40;;;333.20;2329.60;;;;;;5038171;28;20033;-81
2022/09/20 07:59:44;;;;;;;10.93;9.10;;;333.40;2329.60;;;;;;5038098;28;20036;-79
2022/09/20 08:02:15;;;;;;;10.73;8.57;;;333.30;2329.60;;;;;;5038048;28;20114;-78
2022/09/20 08:04:40;;;;;;;10.48;9.32;;;333.50;2329.60;;;;;;5038236;28;20462;-79
2022/09/20 08:07:06;;;;;;;12.73;9.00;;;333.60;2329.60;;;;;;5038179;28;20025;-81
2022/09/20 08:09:32;;;;;;;11.30;9.20;;;333.60;2329.60;;;;;;5037826;28;20028;-80
2022/09/20 08:11:58;;;;;;;9.30;7.93;;;333.70;2329.60;;;;;;5038209;28;20029;-82
2022/09/20 08:14:24;;;;;;;8.30;7.03;;;358.40;2329.60;;;;;;5038137;28;20119;-81
2022/09/20 08:16:50;;;;;;;9.30;7.40;;;333.70;2329.60;;;;;;5037788;28;20078;-78
2022/09/20 08:19:17;;;;;;;8.93;7.07;;;358.40;2329.60;;;;;;5038165;28;20068;-82
2022/09/20 08:21:44;;;;;;;7.82;6.57;;;358.40;2329.60;;;;;;5055846;28;20029;-78
2022/09/20 08:24:10;;;;;;;13.23;7.30;;;358.40;2329.60;;;;;;5037176;28;20029;-79
2022/09/20 08:26:36;;;;;;;8.68;7.00;;;333.50;2329.60;;;;;;5037657;28;20429;-79
2022/09/20 08:29:04;;;;;;;8.02;6.72;;;333.50;2329.60;;;;;;5071066;28;20067;-77
2022/09/20 08:31:33;;;;;;;8.48;6.60;;;333.50;2329.60;;;;;;5037391;28;20030;-81
2022/09/20 08:34:02;;;;;;;7.25;6.20;;;333.50;2329.60;;;;;;5037720;28;20029;-79
2022/09/20 08:36:31;;;;;;;8.23;5.57;;;358.40;2329.60;;;;;;5037733;28;20060;-79
2022/09/20 08:38:57;;;;;;;6.57;5.15;;;358.50;2329.60;;;;;;5037234;28;20025;-79
2022/09/20 08:41:37;;;;;;;7.57;5.72;;;358.60;2329.60;;;;;;5037487;28;20029;-79
2022/09/20 08:44:10;;;;;;;8.32;6.28;;;358.90;2329.60;;;;;;5037052;28;20049;-78
2022/09/20 08:46:40;;;;;;;7.88;5.60;;;358.80;2329.60;;;;;;5054254;28;20021;-81
2022/09/20 08:49:09;;;;;;;7.10;5.60;;;358.90;2329.60;;;;;;5055263;28;20037;-79
2022/09/20 08:51:40;;;;;;;5.80;4.55;;;358.80;2329.60;;;;;;5037001;28;20036;-80
2022/09/20 08:54:11;;;;;;;6.57;4.82;;;358.90;2329.60;;;;;;5037379;28;20159;-78
2022/09/20 08:56:37;;;;;;;7.07;4.80;;;358.90;2329.60;;;;;;5037300;28;20036;-79
2022/09/20 08:59:05;;;;;;;5.63;4.30;;;358.90;2329.60;;;;;;5054806;28;20039;-77
2022/09/20 09:01:32;;;;;;;6.57;3.70;;;358.80;2329.60;;;;;;5037214;28;20029;-79
2022/09/20 09:04:17;;;;;;;6.20;4.32;;;358.80;2329.60;;;;;;5055212;28;20021;-77
2022/09/20 09:06:44;;;;;;;8.60;4.13;;;358.90;2329.60;;;;;;5036917;28;20028;-81
2022/09/20 09:09:25;;;;;;;5.95;4.50;;;358.70;2329.60;;;;;;5054667;28;20028;-78
2022/09/20 09:11:53;;;;;;;11.88;4.40;;;358.90;2329.60;;;;;;5036759;28;20398;-80
2022/09/20 09:17:12;;;;;;;6.60;3.92;;;359.20;2329.60;;;;;;5054154;28;20035;-78
2022/09/20 09:19:58;;;;;;;4.80;3.50;;;359.30;2329.60;;;;;;5036973;28;20057;-81
2022/09/20 09:22:44;;;;;;;6.03;4.68;;;384.10;2329.60;;;;;;5036756;28;20056;-80
2022/09/20 09:25:13;;;;;;;6.43;5.13;;;384.40;2329.60;;;;;;5043259;28;20024;-81
2022/09/20 09:28:05;;;;;;;6.32;4.60;;;384.40;2329.60;;;;;;5043430;28;20033;-79
2022/09/20 09:30:43;;;;;;;9.68;4.88;;;384.50;2329.60;;;;;;5052081;28;20043;-76
2022/09/20 09:33:29;;;;;;;8.05;5.15;;;384.60;2329.60;;;;;;5034586;28;20021;-77
2022/09/20 09:36:16;;;;;;;8.65;5.53;;;384.70;2329.60;;;;;;5053855;28;20036;-77
2022/09/20 09:38:45;;;;;;;7.13;5.80;;;409.60;2355.20;;;;;;5052874;28;20057;-79
2022/09/20 09:41:28;;;;;;;7.00;3.85;;;409.90;2355.20;;;;;;5069525;28;20104;-81
2022/09/20 09:44:17;;;;;;;9.77;4.70;;;410.00;2355.20;;;;;;5055257;28;20049;-80
2022/09/20 09:46:43;;;;;;;6.95;3.97;;;;;;;;;;5063068;28;20024;-79
2022/09/20 09:49:24;;;;;;;7.07;4.28;;;;;;;;;;5051765;28;20045;-80
2022/09/20 09:52:01;;;;;;;8.55;3.75;;;;;;;;;;5052173;28;20032;-80
2022/09/20 09:54:29;;;;;;;5.55;3.45;;;;;;;;;;5052441;28;20343;-78
2022/09/20 09:56:58;;;;;;;4.78;2.75;;;;;;;;;;5053751;28;20100;-77
2022/09/20 09:59:48;;;;;;;7.10;3.45;;;;;;;;;;5052414;28;20413;-78
2022/09/20 10:02:44;;;;;;;4.80;3.20;;;410.50;2355.20;;;;;;5032898;28;20479;-77
2022/09/20 10:05:19;;;;;;;4.22;2.38;;;410.40;2355.20;;;;;;5051682;28;20025;-79
2022/09/20 10:07:55;;;;;;;4.93;2.15;;;435.30;2355.20;;;;;;5033037;28;20033;-81
2022/09/20 10:10:27;;;;;;;3.55;1.98;;;435.60;2355.20;;;;;;5031796;28;20028;-80
2022/09/20 10:13:14;;;;;;;2.97;1.37;;;435.60;2355.20;;;;;;5032361;28;20052;-81
2022/09/20 10:16:24;;;;;;;3.88;1.85;;;435.40;2355.20;;;;;;5032660;28;20072;-81
2022/09/20 10:19:14;;;;;;;5.43;2.30;;;435.60;2355.20;;;;;;5020965;28;20797;-81
2022/09/20 10:22:01;;;;;;;5.10;1.75;;;435.90;2355.20;;;;;;5034116;28;20041;-81
2022/09/20 10:24:54;;;;;;;3.25;1.60;;;;;;;;;;5032567;28;20029;-81
2022/09/20 10:27:26;;;;;;;3.17;1.65;;;;;;;;;;5040552;28;20047;-81
2022/09/20 10:29:59;;;;;;;3.63;1.88;;;;;;;;;;5057970;28;20048;-81
2022/09/20 10:32:48;;;;;;;4.22;2.60;;;;;;;;;;5044244;28;20426;-81
2022/09/20 10:35:45;;;;;;;6.70;1.80;;;435.90;2355.20;;;;;;5032457;28;20026;-81
2022/09/20 10:38:14;;;;;;;4.47;2.03;;;435.90;2355.20;;;;;;5032615;28;20037;-81
2022/09/20 10:44:08;;;;;;;4.47;1.55;;;435.90;2329.60;;;;;;5033113;28;20065;-81
2022/09/20 10:47:01;;;;;;;4.10;1.58;;;435.90;2329.60;;;;;;5032057;28;20048;-81
2022/09/20 10:49:42;;;;;;;3.30;1.70;;;435.90;2355.20;;;;;;5032302;28;20116;-81
2022/09/20 10:52:48;;;;;;;4.55;2.42;;;435.90;2355.20;;;;;;5032108;28;20079;-81
2022/09/20 10:55:39;;;;;;;4.03;1.88;;;460.80;2380.80;;;;;;5031850;28;20071;-81
2022/09/20 10:58:19;;;;;;;3.55;1.90;;;460.80;2380.80;;;;;;5033455;28;20030;-81
2022/09/20 11:00:58;;;;;;;6.93;3.28;;;436.10;2355.20;;;;;;5031906;28;20482;-81
2022/09/20 11:03:34;;;;;;;5.88;3.00;;;436.10;2355.20;;;;;;5032107;28;20021;-81
2022/09/20 11:06:40;;;;;;;5.32;2.55;;;460.90;2380.80;;;;;;5033591;28;20033;-81
2022/09/20 11:09:10;;;;;;;6.55;3.60;;;461.00;2380.80;;;;;;5035683;28;20442;-81
2022/09/20 11:11:49;;;;;;;6.25;3.65;;;461.20;2380.80;;;;;;5035906;28;20487;-81
2022/09/20 11:14:28;;;;;;;4.35;2.40;;;461.60;2380.80;;;;;;5035963;28;20028;-81
2022/09/20 11:17:09;;;;;;;4.50;2.00;;;486.40;2380.80;;;;;;5035469;28;20471;-81
2022/09/20 11:19:55;;;;;;;2.53;1.20;;;486.90;2380.80;;;;;;5035764;28;20067;-81
2022/09/20 11:22:37;;;;;;;2.70;1.30;;;487.00;2150.40;;;;;;5035471;28;20522;-81
2022/09/20 11:25:29;;;;;;;4.68;2.97;;;512.10;2150.40;;;;;;5035713;28;20029;-81
2022/09/20 11:28:29;;;;;;;3.67;1.92;;;512.80;2099.20;;;;;;5015704;28;20375;-82
2022/09/20 11:31:11;;;;;;;3.00;1.70;;;512.50;2124.80;;;;;;5035381;28;20458;-81
2022/09/20 11:33:40;;;;;;;2.60;1.60;;;512.80;2099.20;;;;;;5035668;28;20036;-81
2022/09/20 11:36:12;;;;;;;2.90;1.40;;;512.50;2150.40;;;;;;5035222;28;20033;-81
2022/09/20 11:38:56;;;;;;;2.97;1.42;;;512.20;2099.20;;;;;;5035368;28;20393;-81
2022/09/20 11:41:32;;;;;;;3.47;1.67;;;512.00;2176.00;;;;;;5035085;28;20036;-82
2022/09/20 11:44:06;;;;;;;3.10;1.50;;;487.00;2099.20;;;;;;5036450;28;20053;-81
2022/09/20 11:46:46;;;;;;;3.40;1.35;;;486.60;2150.40;;;;;;5035428;28;20029;-82
2022/09/20 11:49:25;;;;;;;7.50;2.40;;;486.50;2176.00;;;;;;5035039;28;20129;-82
2022/09/20 11:52:17;;;;;;;5.30;2.30;;;486.40;2252.80;;;;;;5034842;28;20060;-81
2022/09/20 11:55:11;;;;;;;12.40;7.85;;;486.40;2227.20;;;;;;5035113;28;20171;-81
2022/09/20 11:57:37;;;;;;;6.40;4.10;;;461.70;2252.80;;;;;;5034440;28;20033;-81
2022/09/20 12:00:06;;;;;;;9.65;4.53;;;486.50;2252.80;;;;;;5036003;28;20474;-81
2022/09/20 12:02:47;;;;;;;5.43;3.35;;;486.50;2252.80;;;;;;5034838;28;20040;-82
2022/09/20 12:05:39;;;;;;;4.10;3.00;;;486.90;2252.80;;;;;;5034752;28;20383;-81
2022/09/20 12:08:17;;;;;;;5.63;1.95;;;512.60;2150.40;;;;;;5034931;28;20112;-79
2022/09/20 12:11:01;;;;;;;5.00;2.58;;;537.80;2150.40;;;;;;5035853;28;20026;-79
2022/09/20 12:13:27;;;;;;;3.35;1.80;;;538.20;2099.20;;;;;;5034766;28;20036;-79
2022/09/20 12:16:33;;;;;;;3.03;1.30;;;538.50;2048.00;;;;;;5034668;28;20026;-79
2022/09/20 12:19:04;;;;;;;3.83;1.92;;;563.60;2073.60;;;;;;5016996;28;20099;-80
2022/09/20 12:21:30;;;;;;;2.97;1.30;;;564.10;2048.00;;;;;;5034431;28;20055;-79
2022/09/20 12:23:55;;;;;;;2.47;1.33;;;563.80;1945.60;;;;;;5034527;28;20033;-80
2022/09/20 12:26:21;;;;;;;3.30;1.60;;;564.00;1996.80;;;;;;5034151;28;20030;-80
2022/09/20 12:28:52;;;;;;;3.42;1.27;;;563.90;1945.60;;;;;;5035522;28;20460;-79
2022/09/20 12:31:20;;;;;;;2.80;1.55;;;589.00;1971.20;;;;;;5034382;28;20029;-80
2022/09/20 12:33:59;;;;;;;2.90;1.50;;;564.00;1894.40;;;;;;5035320;28;20075;-80
2022/09/20 12:36:28;;;;;;;3.05;1.40;;;589.00;1920.00;;;;;;5035300;28;20033;-79
2022/09/20 12:39:04;;;;;;;5.13;1.70;;;589.10;1945.60;;;;;;5034032;28;20097;-80
2022/09/20 12:41:55;;;;;;;3.50;1.70;;;589.10;1868.80;;;;;;5034249;28;20120;-79
2022/09/20 12:44:43;;;;;;;2.78;1.63;;;588.80;1868.80;;;;;;5025406;28;20054;-80
2022/09/20 12:47:11;;;;;;;3.45;1.70;;;588.80;1868.80;;;;;;5034011;28;20029;-81
2022/09/20 12:52:59;;;;;;;2.97;1.30;;;589.40;1894.40;;;;;;5034982;28;20033;-78
2022/09/20 12:55:45;;;;;;;3.97;1.63;;;589.10;1817.60;;;;;;5034139;28;20433;-78
2022/09/20 12:58:13;;;;;;;4.25;1.85;;;589.60;1817.60;;;;;;5034860;28;20037;-79
2022/09/20 13:00:43;;;;;;;4.68;2.05;;;589.50;1792.00;;;;;;5033397;28;20034;-79
2022/09/20 13:03:35;;;;;;;3.95;1.55;;;588.90;1843.20;;;;;;5033621;28;20030;-79
2022/09/20 13:06:13;;;;;;;5.28;2.58;;;563.70;1920.00;;;;;;5033713;28;20061;-79
2022/09/20 13:08:51;;;;;;;3.72;1.77;;;538.50;1920.00;;;;;;5034452;28;20120;-79
2022/09/20 13:11:22;;;;;;;4.57;2.00;;;538.00;1996.80;;;;;;5033558;28;20467;-79
2022/09/20 13:13:48;;;;;;;3.92;2.42;;;537.60;2022.40;;;;;;5033254;28;20173;-80
2022/09/20 13:16:37;;;;;;;4.70;3.08;;;512.90;2048.00;;;;;;5033323;28;20414;-80
2022/09/20 13:19:05;;;;;;;3.45;2.00;;;512.70;2022.40;;;;;;5033281;28;20033;-80
2022/09/20 13:21:39;;;;;;;4.38;1.77;;;512.40;2048.00;;;;;;5033041;28;20025;-79
2022/09/20 13:24:06;;;;;;;4.15;1.85;;;512.30;2073.60;;;;;;5033193;28;20533;-81
2022/09/20 13:26:40;;;;;;;3.53;1.85;;;512.70;2048.00;;;;;;5034234;28;20025;-80
2022/09/20 13:29:29;;;;;;;3.15;1.45;;;563.30;2073.60;;;;;;5031864;28;20109;-79
2022/09/20 13:31:55;;;;;;;4.82;1.52;;;564.10;1945.60;;;;;;5033435;28;20029;-80
2022/09/20 13:34:24;;;;;;;3.00;1.58;;;589.70;1868.80;;;;;;5033391;28;20457;-79